createdAt,value
2019-05-14T00:01:44.180Z,7.80
2019-05-14T00:04:15.907Z,7.90
2019-05-14T00:06:46.353Z,7.90
2019-05-14T00:09:16.997Z,7.90
2019-05-14T00:11:47.526Z,7.90
2019-05-14T00:14:18.069Z,7.90
2019-05-14T00:16:51.174Z,7.90
2019-05-14T00:19:21.551Z,7.90
2019-05-14T00:21:52.157Z,7.90
2019-05-14T00:24:22.717Z,7.90
2019-05-14T00:26:53.490Z,7.90
2019-05-14T00:29:24.172Z,7.90
2019-05-14T00:31:54.556Z,7.80
2019-05-14T00:34:25.036Z,7.80
2019-05-14T00:36:55.671Z,7.70
2019-05-14T00:39:26.197Z,7.80
2019-05-14T00:41:56.682Z,7.80
2019-05-14T00:44:27.220Z,7.90
2019-05-14T00:46:57.838Z,7.90
2019-05-14T00:49:28.277Z,7.90
2019-05-14T00:51:58.908Z,7.80
2019-05-14T00:54:29.566Z,7.90
2019-05-14T00:57:01.412Z,7.90
2019-05-14T00:59:32.433Z,7.90
2019-05-14T01:02:03.327Z,7.90
2019-05-14T01:04:34.140Z,8.00
2019-05-14T01:07:04.776Z,8.00
2019-05-14T01:09:35.374Z,7.90
2019-05-14T01:12:06.040Z,7.80
2019-05-14T01:14:36.594Z,7.80
2019-05-14T01:17:07.134Z,7.80
2019-05-14T01:19:37.796Z,7.80
2019-05-14T01:22:08.586Z,7.80
2019-05-14T01:24:41.655Z,7.80
2019-05-14T01:27:12.726Z,7.80
2019-05-14T01:29:43.474Z,7.70
2019-05-14T01:32:14.207Z,7.70
2019-05-14T01:34:44.667Z,7.70
2019-05-14T01:37:15.149Z,7.80
2019-05-14T01:39:45.639Z,7.70
2019-05-14T01:42:16.033Z,7.70
2019-05-14T01:44:46.618Z,7.70
2019-05-14T01:47:17.488Z,7.70
2019-05-14T01:49:48.079Z,7.60
2019-05-14T01:52:18.627Z,7.60
2019-05-14T01:54:51.309Z,7.70
2019-05-14T01:57:21.887Z,7.70
2019-05-14T01:59:52.607Z,7.70
2019-05-14T02:02:23.305Z,7.70
2019-05-14T02:04:53.761Z,7.70
2019-05-14T02:07:24.408Z,7.60
2019-05-14T02:09:54.958Z,7.50
2019-05-14T02:12:25.418Z,7.50
2019-05-14T02:14:56.051Z,7.50
2019-05-14T02:17:26.591Z,7.50
2019-05-14T02:19:57.134Z,7.60
2019-05-14T02:22:27.704Z,7.70
2019-05-14T02:24:58.276Z,7.60
2019-05-14T02:27:28.819Z,7.60
2019-05-14T02:30:01.789Z,7.60
2019-05-14T02:32:31.799Z,7.60
2019-05-14T02:35:02.448Z,7.60
2019-05-14T02:37:33.141Z,7.60
2019-05-14T02:40:03.600Z,7.60
2019-05-14T02:42:34.363Z,7.60
2019-05-14T02:45:08.988Z,7.60
2019-05-14T02:47:39.729Z,7.50
2019-05-14T02:50:10.646Z,7.50
2019-05-14T02:52:41.217Z,7.50
2019-05-14T02:55:11.950Z,7.40
2019-05-14T02:57:42.510Z,7.40
2019-05-14T03:00:13.295Z,7.40
2019-05-14T03:02:43.846Z,7.40
2019-05-14T03:05:15.071Z,7.50
2019-05-14T03:07:45.555Z,7.50
2019-05-14T03:10:19.189Z,7.50
2019-05-14T03:12:50.103Z,7.50
2019-05-14T03:15:20.667Z,7.50
2019-05-14T03:17:51.253Z,7.50
2019-05-14T03:20:21.838Z,7.50
2019-05-14T03:23:03.082Z,7.50
2019-05-14T03:25:25.327Z,7.50
2019-05-14T03:27:56.086Z,7.50
2019-05-14T03:30:31.556Z,7.50
2019-05-14T03:33:02.590Z,7.50
2019-05-14T03:35:41.139Z,7.60
2019-05-14T03:38:03.832Z,7.60
2019-05-14T03:40:34.284Z,7.60
2019-05-14T03:43:04.714Z,7.60
2019-05-14T03:45:38.892Z,7.50
2019-05-14T03:48:10.369Z,7.50
2019-05-14T03:50:39.899Z,7.50
2019-05-14T03:53:10.411Z,7.40
2019-05-14T03:55:41.012Z,7.50
2019-05-14T03:58:11.792Z,7.50
2019-05-14T04:00:52.050Z,7.50
2019-05-14T04:03:23.387Z,7.50
2019-05-14T04:05:54.696Z,7.50
2019-05-14T04:08:29.293Z,7.40
2019-05-14T04:11:00.330Z,7.40
2019-05-14T04:13:32.737Z,7.30
2019-05-14T04:16:04.317Z,7.40
2019-05-14T04:18:40.509Z,7.40
2019-05-14T04:21:12.445Z,7.50
2019-05-14T04:23:50.424Z,7.50
2019-05-14T04:26:21.559Z,7.60
2019-05-14T04:28:52.588Z,7.60
2019-05-14T04:31:23.242Z,7.70
2019-05-14T04:33:59.282Z,7.70
2019-05-14T04:36:30.263Z,7.80
2019-05-14T04:39:01.282Z,7.70
2019-05-14T04:41:32.956Z,7.80
2019-05-14T04:44:03.593Z,7.80
2019-05-14T04:46:34.611Z,7.80
2019-05-14T04:49:05.209Z,7.80
2019-05-14T04:51:39.401Z,7.80
2019-05-14T04:54:09.439Z,7.80
2019-05-14T04:56:40.316Z,7.80
2019-05-14T04:59:10.862Z,7.80
2019-05-14T05:01:41.245Z,7.90
2019-05-14T05:04:11.783Z,7.90
2019-05-14T05:06:42.207Z,7.80
2019-05-14T05:09:13.146Z,7.80
2019-05-14T05:11:43.553Z,7.90
2019-05-14T05:14:13.958Z,7.90
2019-05-14T05:16:44.665Z,7.90
2019-05-14T05:19:15.076Z,7.90
2019-05-14T05:21:48.101Z,7.80
2019-05-14T05:24:18.514Z,7.90
2019-05-14T05:26:49.058Z,7.80
2019-05-14T05:29:19.831Z,7.90
2019-05-14T05:31:50.333Z,8.00
2019-05-14T05:34:21.054Z,8.00
2019-05-14T05:36:51.530Z,8.00
2019-05-14T05:39:22.025Z,8.00
2019-05-14T05:41:52.727Z,8.10
2019-05-14T05:44:23.305Z,8.10
2019-05-14T05:46:53.793Z,8.20
2019-05-14T05:49:25.265Z,8.30
2019-05-14T05:51:55.832Z,8.30
2019-05-14T05:54:29.016Z,8.40
2019-05-14T05:56:58.827Z,8.40
2019-05-14T05:59:29.538Z,8.50
2019-05-14T06:02:00.053Z,8.70
2019-05-14T06:04:30.517Z,8.70
2019-05-14T06:07:02.751Z,8.80
2019-05-14T06:09:33.651Z,8.90
2019-05-14T06:12:04.119Z,8.90
2019-05-14T06:14:34.871Z,9.00
2019-05-14T06:17:05.331Z,8.90
2019-05-14T06:19:38.232Z,9.00
2019-05-14T06:22:09.866Z,9.00
2019-05-14T06:24:40.752Z,9.00
2019-05-14T06:27:11.212Z,9.00
2019-05-14T06:29:41.818Z,9.00
2019-05-14T06:32:12.434Z,9.00
2019-05-14T06:34:42.912Z,9.00
2019-05-14T06:37:13.632Z,9.10
2019-05-14T06:39:44.100Z,9.20
2019-05-14T06:42:14.894Z,9.20
2019-05-14T06:44:45.410Z,9.30
2019-05-14T06:47:18.500Z,9.30
2019-05-14T06:49:48.845Z,9.40
2019-05-14T06:52:19.671Z,9.40
2019-05-14T06:54:50.087Z,9.40
2019-05-14T06:57:20.585Z,9.50
2019-05-14T06:59:51.050Z,9.60
2019-05-14T07:02:21.470Z,9.60
2019-05-14T07:04:51.938Z,9.70
2019-05-14T07:07:22.465Z,9.60
2019-05-14T07:09:52.836Z,9.70
2019-05-14T07:12:23.301Z,9.70
2019-05-14T07:14:53.824Z,9.70
2019-05-14T07:17:24.528Z,9.60
2019-05-14T07:19:58.047Z,9.50
2019-05-14T07:22:28.114Z,9.50
2019-05-14T07:24:58.859Z,9.50
2019-05-14T07:27:29.287Z,9.60
2019-05-14T07:29:59.822Z,9.60
2019-05-14T07:32:30.810Z,9.70
2019-05-14T07:35:01.504Z,9.70
2019-05-14T07:37:32.997Z,9.70
2019-05-14T07:40:03.677Z,9.80
2019-05-14T07:42:34.102Z,9.70
2019-05-14T07:45:05.519Z,9.90
2019-05-14T07:47:38.605Z,10.00
2019-05-14T07:50:09.835Z,10.30
2019-05-14T07:52:45.550Z,10.50
2019-05-14T07:55:12.947Z,10.60
2019-05-14T07:57:43.391Z,10.60
2019-05-14T08:00:14.359Z,10.60
2019-05-14T08:02:45.153Z,10.60
2019-05-14T08:05:17.940Z,10.70
2019-05-14T08:07:48.170Z,10.70
2019-05-14T08:10:18.772Z,10.60
2019-05-14T08:12:49.287Z,10.60
2019-05-14T08:15:22.407Z,10.50
2019-05-14T08:17:52.033Z,10.50
2019-05-14T08:20:22.567Z,10.40
2019-05-14T08:22:53.133Z,10.30
2019-05-14T08:25:23.605Z,10.30
2019-05-14T08:27:54.211Z,10.20
2019-05-14T08:30:25.090Z,10.20
2019-05-14T08:32:58.155Z,10.20
2019-05-14T08:35:29.027Z,10.30
2019-05-14T08:38:08.151Z,10.30
2019-05-14T08:40:32.846Z,10.20
2019-05-14T08:43:03.299Z,10.00
2019-05-14T08:45:33.737Z,9.80
2019-05-14T08:48:04.142Z,9.70
2019-05-14T08:50:35.763Z,9.70
2019-05-14T08:53:08.886Z,9.60
2019-05-14T08:55:38.554Z,9.60
2019-05-14T08:58:14.456Z,9.60
2019-05-14T09:00:48.288Z,9.60
2019-05-14T09:03:19.250Z,9.60
2019-05-14T09:05:49.856Z,9.60
2019-05-14T09:08:20.447Z,9.70
2019-05-14T09:10:50.973Z,9.70
2019-05-14T09:13:21.564Z,9.80
2019-05-14T09:15:58.649Z,9.90
2019-05-14T09:18:29.502Z,10.00
2019-05-14T09:21:00.060Z,10.30
2019-05-14T09:23:30.521Z,10.50
2019-05-14T09:26:01.020Z,10.70
2019-05-14T09:28:34.576Z,11.10
2019-05-14T09:31:05.154Z,11.40
2019-05-14T09:33:35.681Z,11.60
2019-05-14T09:36:18.054Z,11.60
2019-05-14T09:38:42.094Z,11.60
2019-05-14T09:41:15.003Z,11.30
2019-05-14T09:43:42.749Z,11.10
2019-05-14T09:46:13.469Z,10.90
2019-05-14T09:48:44.222Z,10.60
2019-05-14T09:51:14.701Z,10.40
2019-05-14T09:53:45.203Z,10.30
2019-05-14T09:56:18.402Z,10.20
2019-05-14T09:58:49.515Z,10.20
2019-05-14T10:01:20.351Z,10.00
2019-05-14T10:03:50.847Z,10.00
2019-05-14T10:06:21.523Z,10.10
2019-05-14T10:08:51.933Z,10.20
2019-05-14T10:11:23.486Z,10.30
2019-05-14T10:13:54.081Z,10.40
2019-05-14T10:16:24.597Z,10.60
2019-05-14T10:18:55.259Z,10.80
2019-05-14T10:21:26.044Z,10.90
2019-05-14T10:23:58.433Z,11.00
2019-05-14T10:26:28.970Z,11.00
2019-05-14T10:28:59.661Z,11.00
2019-05-14T10:31:30.512Z,11.00
2019-05-14T10:34:01.228Z,10.80
2019-05-14T10:36:31.789Z,10.80
2019-05-14T10:39:02.367Z,10.80
2019-05-14T10:41:33.264Z,10.60
2019-05-14T10:44:03.814Z,10.40
2019-05-14T10:46:34.442Z,10.20
2019-05-14T10:49:16.335Z,10.10
2019-05-14T10:51:38.952Z,10.10
2019-05-14T10:54:20.999Z,10.10
2019-05-14T10:56:41.198Z,10.10
2019-05-14T10:59:11.645Z,10.00
2019-05-14T11:01:42.036Z,10.10
2019-05-14T11:04:12.806Z,10.20
2019-05-14T11:06:43.494Z,10.30
2019-05-14T11:09:13.948Z,10.30
2019-05-14T11:11:44.395Z,10.40
2019-05-14T11:14:14.837Z,10.60
2019-05-14T11:16:45.424Z,10.70
2019-05-14T11:19:15.929Z,10.90
2019-05-14T11:21:48.365Z,11.00
2019-05-14T11:24:19.076Z,11.10
2019-05-14T11:26:49.620Z,11.00
2019-05-14T11:29:20.068Z,10.90
2019-05-14T11:31:50.553Z,10.70
2019-05-14T11:34:21.032Z,10.70
2019-05-14T11:36:51.491Z,10.60
2019-05-14T11:39:22.173Z,10.50
2019-05-14T11:41:52.589Z,10.40
2019-05-14T11:44:23.145Z,10.40
2019-05-14T11:46:57.825Z,10.50
2019-05-14T11:49:26.785Z,10.60
2019-05-14T11:52:07.207Z,10.70
2019-05-14T11:54:29.385Z,10.80
2019-05-14T11:56:59.847Z,10.70
2019-05-14T11:59:30.307Z,10.60
2019-05-14T12:02:00.738Z,10.70
2019-05-14T12:04:31.535Z,10.60
2019-05-14T12:07:02.284Z,10.60
2019-05-14T12:09:32.686Z,10.80
2019-05-14T12:12:03.202Z,10.80
2019-05-14T12:14:33.832Z,10.80
2019-05-14T12:17:04.275Z,10.60
2019-05-14T12:19:34.882Z,10.70
2019-05-14T12:22:10.358Z,10.90
2019-05-14T12:24:38.704Z,10.90
2019-05-14T12:27:09.398Z,10.70
2019-05-14T12:29:40.166Z,10.70
2019-05-14T12:32:12.915Z,10.50
2019-05-14T12:34:43.145Z,10.30
2019-05-14T12:37:13.646Z,10.20
2019-05-14T12:39:44.125Z,10.00
2019-05-14T12:42:14.794Z,9.90
2019-05-14T12:44:45.256Z,9.80
2019-05-14T12:47:15.634Z,9.70
2019-05-14T12:49:48.170Z,9.60
2019-05-14T12:52:25.506Z,9.50
2019-05-14T12:54:50.586Z,9.40
2019-05-14T12:57:21.016Z,9.50
2019-05-14T12:59:51.509Z,9.50
2019-05-14T13:02:22.292Z,9.60
2019-05-14T13:04:52.887Z,9.60
2019-05-14T13:07:23.440Z,9.80
2019-05-14T13:09:53.990Z,9.90
2019-05-14T13:12:24.455Z,9.80
2019-05-14T13:14:55.243Z,9.70
2019-05-14T13:17:28.114Z,9.70
2019-05-14T13:19:58.850Z,9.70
2019-05-14T13:22:41.545Z,9.60
2019-05-14T13:25:02.578Z,9.50
2019-05-14T13:27:34.091Z,9.60
2019-05-14T13:30:05.295Z,9.50
2019-05-14T13:32:36.041Z,9.50
2019-05-14T13:35:12.291Z,9.50
2019-05-14T13:37:39.896Z,9.40
2019-05-14T13:40:13.822Z,9.40
2019-05-14T13:42:44.626Z,9.40
2019-05-14T13:45:18.471Z,9.40
2019-05-14T13:47:48.970Z,9.40
2019-05-14T13:50:22.700Z,9.30
2019-05-14T13:53:07.526Z,9.30
2019-05-14T13:55:28.032Z,9.40
2019-05-14T13:57:59.843Z,9.40
2019-05-14T14:00:29.783Z,9.40
2019-05-14T14:03:00.285Z,9.30
2019-05-14T14:05:30.830Z,9.40
2019-05-14T14:08:01.484Z,9.40
2019-05-14T14:10:36.753Z,9.40
2019-05-14T14:13:09.972Z,9.40
2019-05-14T14:15:38.410Z,9.50
2019-05-14T14:18:09.370Z,9.50
2019-05-14T14:20:39.949Z,9.50
2019-05-14T14:23:21.864Z,9.40
2019-05-14T14:25:43.068Z,9.30
2019-05-14T14:28:13.707Z,9.30
2019-05-14T14:30:44.132Z,9.30
2019-05-14T14:33:18.532Z,9.40
2019-05-14T14:35:48.747Z,9.30
2019-05-14T14:38:20.296Z,9.20
2019-05-14T14:40:51.088Z,9.10
2019-05-14T14:43:21.746Z,9.20
2019-05-14T14:45:52.813Z,9.20
2019-05-14T14:48:23.657Z,9.20
2019-05-14T14:50:54.371Z,9.20
2019-05-14T14:53:41.334Z,9.20
2019-05-14T14:56:00.419Z,9.10
2019-05-14T14:58:30.464Z,9.20
2019-05-14T15:01:02.247Z,9.10
2019-05-14T15:03:33.110Z,9.10
2019-05-14T15:06:03.578Z,9.00
2019-05-14T15:08:34.274Z,9.10
2019-05-14T15:11:08.266Z,9.10
2019-05-14T15:13:39.043Z,9.10
2019-05-14T15:16:13.387Z,9.10
2019-05-14T15:19:13.483Z,9.10
2019-05-14T15:21:44.201Z,9.10
2019-05-14T15:24:16.044Z,9.20
2019-05-14T15:26:47.210Z,9.20
2019-05-14T15:29:18.628Z,9.20
2019-05-14T15:31:49.655Z,9.10
2019-05-14T15:34:20.302Z,9.10
2019-05-14T15:36:50.798Z,9.10
2019-05-14T15:39:22.418Z,9.00
2019-05-14T15:41:53.566Z,9.00
2019-05-14T15:44:24.355Z,9.10
2019-05-14T15:46:58.617Z,9.10
2019-05-14T15:49:28.590Z,9.00
2019-05-14T15:51:59.261Z,9.00
2019-05-14T15:54:42.201Z,9.00
2019-05-14T15:57:02.098Z,9.10
2019-05-14T15:59:32.758Z,9.10
2019-05-14T16:02:03.716Z,9.00
2019-05-14T16:04:34.644Z,9.10
2019-05-14T16:07:05.467Z,9.10
2019-05-14T16:09:39.483Z,9.00
2019-05-14T16:12:09.617Z,9.00
2019-05-14T16:14:40.396Z,9.00
2019-05-14T16:17:11.995Z,9.00
2019-05-14T16:19:43.357Z,9.00
2019-05-14T16:22:13.929Z,9.10
2019-05-14T16:24:55.779Z,9.10
2019-05-14T16:27:19.742Z,9.10
2019-05-14T16:29:49.307Z,9.00
2019-05-14T16:32:19.980Z,8.90
2019-05-14T16:34:50.788Z,8.90
2019-05-14T16:37:21.534Z,8.90
2019-05-14T16:39:52.311Z,9.00
2019-05-14T16:42:23.277Z,9.00
2019-05-14T16:44:53.812Z,8.90
2019-05-14T16:47:25.379Z,8.90
2019-05-14T16:49:59.008Z,8.90
2019-05-14T16:52:28.798Z,8.90
2019-05-14T16:55:17.444Z,9.00
2019-05-14T16:57:32.430Z,8.90
2019-05-14T17:00:03.267Z,8.90
2019-05-14T17:02:33.897Z,8.90
2019-05-14T17:05:04.728Z,8.80
2019-05-14T17:07:35.574Z,8.90
2019-05-14T17:10:08.354Z,8.90
2019-05-14T17:12:52.395Z,8.90
2019-05-14T17:15:11.679Z,8.80
2019-05-14T17:17:42.528Z,8.90
2019-05-14T17:20:13.421Z,8.90
2019-05-14T17:22:44.275Z,8.80
2019-05-14T17:25:26.230Z,8.80
2019-05-14T17:27:48.587Z,8.80
2019-05-14T17:30:19.393Z,8.80
2019-05-14T17:32:50.041Z,8.80
2019-05-14T17:35:20.533Z,8.80
2019-05-14T17:37:51.284Z,8.80
2019-05-14T17:40:22.185Z,8.80
2019-05-14T17:42:53.008Z,8.80
2019-05-14T17:45:23.608Z,8.80
2019-05-14T17:47:54.161Z,8.90
2019-05-14T17:50:24.719Z,8.90
2019-05-14T17:52:59.395Z,8.90
2019-05-14T17:55:43.161Z,8.80
2019-05-14T17:58:00.922Z,8.80
2019-05-14T18:00:31.434Z,8.80
2019-05-14T18:03:03.216Z,8.90
2019-05-14T18:05:34.067Z,8.90
2019-05-14T18:08:05.454Z,8.90
2019-05-14T18:10:36.079Z,8.90
2019-05-14T18:13:09.291Z,9.00
2019-05-14T18:15:39.575Z,9.00
2019-05-14T18:18:10.335Z,9.00
2019-05-14T18:20:40.934Z,9.00
2019-05-14T18:23:11.986Z,9.00
2019-05-14T18:25:42.934Z,9.00
2019-05-14T18:28:13.708Z,9.00
2019-05-14T18:30:44.436Z,8.90
2019-05-14T18:33:15.063Z,8.90
2019-05-14T18:35:47.577Z,8.90
2019-05-14T18:38:19.428Z,9.00
2019-05-14T18:40:50.406Z,9.00
2019-05-14T18:43:21.052Z,9.00
2019-05-14T18:45:51.562Z,9.00
2019-05-14T18:48:22.246Z,9.00
2019-05-14T18:50:52.968Z,9.00
2019-05-14T18:53:23.774Z,9.00
2019-05-14T18:55:54.570Z,9.00
2019-05-14T18:58:26.137Z,8.90
2019-05-14T19:00:58.616Z,8.90
2019-05-14T19:03:29.488Z,8.90
2019-05-14T19:06:00.348Z,8.90
2019-05-14T19:08:31.202Z,9.00
2019-05-14T19:11:02.000Z,9.00
2019-05-14T19:13:32.946Z,9.00
2019-05-14T19:16:03.581Z,9.10
2019-05-14T19:18:34.061Z,9.10
2019-05-14T19:21:04.845Z,9.10
2019-05-14T19:23:35.510Z,9.10
2019-05-14T19:26:06.204Z,9.10
2019-05-14T19:28:38.816Z,9.10
2019-05-14T19:31:09.405Z,9.10
2019-05-14T19:33:39.916Z,9.20
2019-05-14T19:36:11.779Z,9.20
2019-05-14T19:38:42.551Z,9.20
2019-05-14T19:41:13.489Z,9.20
2019-05-14T19:43:44.288Z,9.20
2019-05-14T19:46:15.187Z,9.20
2019-05-14T19:48:48.229Z,9.20
2019-05-14T19:51:18.804Z,9.20
2019-05-14T19:53:52.305Z,9.20
2019-05-14T19:56:21.629Z,9.20
2019-05-14T19:58:52.238Z,9.20
2019-05-14T20:01:22.915Z,9.20
2019-05-14T20:03:58.759Z,9.10
2019-05-14T20:06:29.507Z,9.10
2019-05-14T20:09:01.402Z,9.20
2019-05-14T20:11:33.543Z,9.20
2019-05-14T20:14:04.665Z,9.20
2019-05-14T20:16:35.278Z,9.20
2019-05-14T20:19:08.863Z,9.10
2019-05-14T20:21:39.588Z,9.10
2019-05-14T20:24:10.028Z,9.20
2019-05-14T20:26:40.460Z,9.10
2019-05-14T20:29:10.930Z,9.10
2019-05-14T20:31:42.721Z,9.20
2019-05-14T20:34:13.306Z,9.10
2019-05-14T20:36:43.946Z,9.20
2019-05-14T20:39:14.762Z,9.10
2019-05-14T20:41:45.601Z,9.10
2019-05-14T20:44:18.728Z,9.10
2019-05-14T20:46:49.052Z,9.10
2019-05-14T20:49:19.757Z,9.10
2019-05-14T20:51:50.412Z,9.10
2019-05-14T20:54:20.916Z,9.10
2019-05-14T20:56:51.434Z,9.10
2019-05-14T20:59:22.360Z,9.10
2019-05-14T21:01:53.182Z,9.20
2019-05-14T21:04:25.427Z,9.10
2019-05-14T21:06:55.931Z,9.10
2019-05-14T21:09:28.659Z,9.10
2019-05-14T21:11:58.676Z,9.20
2019-05-14T21:14:29.375Z,9.20
2019-05-14T21:16:59.922Z,9.20
2019-05-14T21:19:30.685Z,9.30
2019-05-14T21:22:03.142Z,9.30
2019-05-14T21:24:33.622Z,9.20
2019-05-14T21:27:04.167Z,9.10
2019-05-14T21:29:34.630Z,9.10
2019-05-14T21:32:05.039Z,9.10
2019-05-14T21:34:38.348Z,9.00
2019-05-14T21:37:09.312Z,9.00
2019-05-14T21:39:40.950Z,9.10
2019-05-14T21:42:11.677Z,9.10
2019-05-14T21:44:42.269Z,9.10
2019-05-14T21:47:12.737Z,9.20
2019-05-14T21:49:43.309Z,9.10
2019-05-14T21:52:13.750Z,9.20
2019-05-14T21:54:44.316Z,9.20
2019-05-14T21:57:14.831Z,9.30
2019-05-14T21:59:45.405Z,9.30
2019-05-14T22:02:26.999Z,9.20
2019-05-14T22:04:50.148Z,9.20
2019-05-14T22:07:20.675Z,9.20
2019-05-14T22:09:51.134Z,9.20
2019-05-14T22:12:21.804Z,9.30
2019-05-14T22:14:52.190Z,9.20
2019-05-14T22:17:22.832Z,9.20
2019-05-14T22:19:53.264Z,9.20
2019-05-14T22:22:23.724Z,9.20
2019-05-14T22:24:54.215Z,9.20
2019-05-14T22:27:24.674Z,9.10
2019-05-14T22:29:55.301Z,9.20
2019-05-14T22:32:25.714Z,9.20
2019-05-14T22:34:58.446Z,9.20
2019-05-14T22:37:28.348Z,9.20
2019-05-14T22:39:59.114Z,9.20
2019-05-14T22:42:29.682Z,9.20
2019-05-14T22:45:00.248Z,9.20
2019-05-14T22:47:30.720Z,9.20
2019-05-14T22:50:01.451Z,9.20
2019-05-14T22:52:32.090Z,9.20
2019-05-14T22:55:02.804Z,9.20
2019-05-14T22:57:33.535Z,9.30
2019-05-14T23:00:06.188Z,9.30
2019-05-14T23:02:38.479Z,9.30
2019-05-14T23:05:09.095Z,9.30
2019-05-14T23:07:39.555Z,9.40
2019-05-14T23:10:10.080Z,9.30
2019-05-14T23:12:40.716Z,9.40
2019-05-14T23:15:11.361Z,9.40
2019-05-14T23:17:41.865Z,9.40
2019-05-14T23:20:12.694Z,9.40
2019-05-14T23:22:43.195Z,9.30
2019-05-14T23:25:13.761Z,9.30
2019-05-14T23:27:44.655Z,9.30
2019-05-14T23:30:15.189Z,9.30
2019-05-14T23:32:45.722Z,9.30
2019-05-14T23:35:18.516Z,9.40
2019-05-14T23:37:49.009Z,9.30
2019-05-14T23:40:19.563Z,9.40
2019-05-14T23:42:50.353Z,9.40
2019-05-14T23:45:20.790Z,9.40
2019-05-14T23:47:51.353Z,9.50
2019-05-14T23:50:21.802Z,9.40
2019-05-14T23:52:52.267Z,9.40
2019-05-14T23:55:22.750Z,9.40
2019-05-14T23:57:53.200Z,9.50
